Chorlton cum Hardy, United Kingdom
Current Conditions -  °F | °C
As of 4:50 PM on Saturday 22 Nov 2014 (Local Time) from EGCC Reporting Station
Broken Clouds Broken Clouds  
Wind Chill: 11°   Ceiling: 3500
Heat Index: 11°   Visibility: 6mi
Dew Point:   Wind: 6mph
Humidity: 88%   Direction: 190°S
Pressure: 29.88"   Gusts: NA
Location:  53.44°N, 2.26°W
Report Text: EGCC 221650Z 19005KT 9999 FEW020 BKN035 11/09 Q1012 NOSIG
Loading
Personal Weather Stations






























Interactive Weather Map New forecast layout! Learn more

10-Day Weather Forecast

Advertisements
Track Severe Weather on mobile